EGGP

Liverpool John Lennon Airport

Liverpool, United Kingdom
METAR EGGP 212220Z 15011KT CAVOK 17/13 Q1010
Observed Flight Rules
Apr-21 @ 22:20 UTC (31 minutes ago) Visual Flight Rules
Wind Visibility Clouds
150° at 11 knots 10,000+ meters
  • Clear skies
Temperatures Readings
Current 17°C / 63°F
Dewpoint 13°C / 55°F
Humidity 77%
Altimeter 29.82" Hg
Pressure 1010 hPa
Elevation 26
METAR EGGP 212220Z 15011KT CAVOK 17/13 Q1010
Observed Flight Rules
Apr-21 @ 22:20 UTC
(31 minutes ago)
VFR
Wind Visibility
150° at 11 knots 10,000+ meters
Clouds
  • Clear skies
Temperature Dewpoint
17°C / 63°F 13°C / 55°F
Humidity Altimeter Pressure
77% 29.82" Hg 1010 hPa